createdAt,value
2017-12-24T00:01:47.364Z,7.40
2017-12-24T00:04:15.369Z,7.40
2017-12-24T00:06:47.527Z,7.40
2017-12-24T00:09:15.576Z,7.40
2017-12-24T00:11:43.490Z,7.40
2017-12-24T00:14:11.419Z,7.40
2017-12-24T00:16:39.362Z,7.40
2017-12-24T00:19:07.280Z,7.40
2017-12-24T00:21:35.431Z,7.40
2017-12-24T00:24:03.358Z,7.40
2017-12-24T00:26:32.207Z,7.40
2017-12-24T00:29:00.231Z,7.40
2017-12-24T00:31:28.098Z,7.40
2017-12-24T00:33:56.014Z,7.40
2017-12-24T00:36:23.881Z,7.40
2017-12-24T00:38:51.803Z,7.40
2017-12-24T00:41:19.685Z,7.40
2017-12-24T00:43:47.626Z,7.40
2017-12-24T00:46:16.274Z,7.40
2017-12-24T00:48:44.226Z,7.30
2017-12-24T00:51:12.134Z,7.40
2017-12-24T00:53:40.055Z,7.40
2017-12-24T00:56:10.727Z,7.40
2017-12-24T00:58:39.670Z,7.40
2017-12-24T01:01:07.551Z,7.40
2017-12-24T01:03:35.523Z,7.40
2017-12-24T01:06:03.445Z,7.40
2017-12-24T01:08:31.387Z,7.40
2017-12-24T01:10:59.269Z,7.40
2017-12-24T01:13:27.233Z,7.40
2017-12-24T01:15:55.113Z,7.40
2017-12-24T01:18:22.988Z,7.50
2017-12-24T01:20:50.915Z,7.50
2017-12-24T01:23:18.792Z,7.50
2017-12-24T01:25:46.719Z,7.50
2017-12-24T01:28:14.595Z,7.50
2017-12-24T01:30:42.517Z,7.40
2017-12-24T01:33:10.383Z,7.40
2017-12-24T01:35:38.305Z,7.40
2017-12-24T01:38:06.193Z,7.50
2017-12-24T01:40:34.121Z,7.40
2017-12-24T01:43:02.778Z,7.40
2017-12-24T01:45:30.744Z,7.40
2017-12-24T01:47:58.641Z,7.40
2017-12-24T01:50:27.334Z,7.40
2017-12-24T01:52:55.978Z,7.40
2017-12-24T01:55:23.892Z,7.40
2017-12-24T01:57:51.770Z,7.40
2017-12-24T02:00:19.701Z,7.40
2017-12-24T02:02:47.564Z,7.40
2017-12-24T02:05:15.484Z,7.40
2017-12-24T02:07:43.368Z,7.40
2017-12-24T02:10:11.326Z,7.40
2017-12-24T02:12:39.214Z,7.50
2017-12-24T02:15:07.151Z,7.40
2017-12-24T02:17:35.178Z,7.50
2017-12-24T02:20:03.070Z,7.50
2017-12-24T02:22:31.056Z,7.50
2017-12-24T02:24:58.921Z,7.50
2017-12-24T02:27:26.908Z,7.50
2017-12-24T02:29:54.796Z,7.50
2017-12-24T02:32:22.724Z,7.50
2017-12-24T02:34:51.363Z,7.60
2017-12-24T02:37:19.313Z,7.50
2017-12-24T02:39:47.183Z,7.60
2017-12-24T02:42:15.107Z,7.60
2017-12-24T02:44:42.982Z,7.60
2017-12-24T02:47:10.913Z,7.50
2017-12-24T02:49:38.780Z,7.50
2017-12-24T02:52:06.712Z,7.50
2017-12-24T02:54:34.599Z,7.50
2017-12-24T02:57:02.516Z,7.50
2017-12-24T02:59:31.152Z,7.60
2017-12-24T03:01:59.072Z,7.50
2017-12-24T03:04:27.722Z,7.50
2017-12-24T03:06:55.647Z,7.50
2017-12-24T03:09:23.526Z,7.50
2017-12-24T03:11:51.452Z,7.50
2017-12-24T03:14:19.335Z,7.50
2017-12-24T03:16:56.282Z,7.50
2017-12-24T03:19:24.152Z,7.50
2017-12-24T03:21:52.092Z,7.50
2017-12-24T03:24:20.019Z,7.50
2017-12-24T03:26:47.904Z,7.50
2017-12-24T03:29:15.849Z,7.50
2017-12-24T03:31:43.735Z,7.50
2017-12-24T03:34:11.662Z,7.50
2017-12-24T03:36:39.551Z,7.60
2017-12-24T03:39:07.498Z,7.60
2017-12-24T03:41:35.399Z,7.50
2017-12-24T03:44:03.311Z,7.50
2017-12-24T03:46:31.314Z,7.50
2017-12-24T03:48:59.231Z,7.50
2017-12-24T03:51:27.102Z,7.50
2017-12-24T03:53:55.031Z,7.50
2017-12-24T03:56:22.913Z,7.50
2017-12-24T03:58:50.836Z,7.50
2017-12-24T04:01:18.703Z,7.50
2017-12-24T04:03:46.623Z,7.50
2017-12-24T04:06:15.258Z,7.50
2017-12-24T04:08:43.180Z,7.50
2017-12-24T04:11:11.049Z,7.50
2017-12-24T04:13:39.776Z,7.50
2017-12-24T04:16:09.727Z,7.50
2017-12-24T04:18:37.610Z,7.50
2017-12-24T04:21:05.532Z,7.50
2017-12-24T04:23:33.407Z,7.50
2017-12-24T04:26:01.318Z,7.50
2017-12-24T04:28:29.187Z,7.50
2017-12-24T04:30:57.873Z,7.50
2017-12-24T04:33:25.754Z,7.40
2017-12-24T04:35:53.680Z,7.40
2017-12-24T04:38:21.544Z,7.40
2017-12-24T04:40:49.464Z,7.40
2017-12-24T04:43:17.336Z,7.40
2017-12-24T04:45:45.276Z,7.40
2017-12-24T04:48:13.158Z,7.50
2017-12-24T04:50:41.863Z,7.50
2017-12-24T04:53:09.757Z,7.50
2017-12-24T04:55:37.689Z,7.50
2017-12-24T04:58:06.334Z,7.50
2017-12-24T05:00:42.685Z,7.50
2017-12-24T05:03:10.548Z,7.50
2017-12-24T05:05:38.461Z,7.50
2017-12-24T05:08:06.324Z,7.40
2017-12-24T05:10:34.249Z,7.50
2017-12-24T05:13:02.122Z,7.50
2017-12-24T05:15:30.054Z,7.50
2017-12-24T05:17:57.912Z,7.50
2017-12-24T05:20:25.783Z,7.50
2017-12-24T05:22:54.470Z,7.50
2017-12-24T05:25:23.122Z,7.50
2017-12-24T05:27:51.032Z,7.50
2017-12-24T05:30:18.897Z,7.50
2017-12-24T05:32:47.593Z,7.50
2017-12-24T05:35:16.221Z,7.50
2017-12-24T05:37:54.535Z,7.50
2017-12-24T05:40:22.414Z,7.50
2017-12-24T05:42:50.380Z,7.50
2017-12-24T05:45:18.269Z,7.50
2017-12-24T05:47:46.210Z,7.50
2017-12-24T05:50:14.086Z,7.50
2017-12-24T05:52:42.003Z,7.50
2017-12-24T05:55:09.870Z,7.50
2017-12-24T05:57:38.561Z,7.50
2017-12-24T06:00:06.470Z,7.50
2017-12-24T06:02:34.394Z,7.50
2017-12-24T06:05:03.027Z,7.50
2017-12-24T06:07:34.850Z,7.50
2017-12-24T06:10:02.717Z,7.50
2017-12-24T06:12:30.649Z,7.50
2017-12-24T06:14:58.520Z,7.50
2017-12-24T06:17:26.456Z,7.50
2017-12-24T06:19:54.322Z,7.50
2017-12-24T06:22:22.238Z,7.50
2017-12-24T06:24:50.104Z,7.50
2017-12-24T06:27:17.968Z,7.50
2017-12-24T06:29:45.874Z,7.50
2017-12-24T06:32:13.752Z,7.50
2017-12-24T06:34:41.664Z,7.50
2017-12-24T06:37:13.522Z,7.50
2017-12-24T06:39:41.444Z,7.50
2017-12-24T06:42:09.332Z,7.50
2017-12-24T06:44:37.258Z,7.50
2017-12-24T06:47:05.176Z,7.50
2017-12-24T06:49:33.088Z,7.50
2017-12-24T06:52:00.949Z,7.50
2017-12-24T06:54:28.864Z,7.60
2017-12-24T06:56:56.739Z,7.50
2017-12-24T06:59:24.669Z,7.60
2017-12-24T07:01:53.304Z,7.50
2017-12-24T07:04:21.222Z,7.50
2017-12-24T07:06:49.152Z,7.50
2017-12-24T07:09:17.084Z,7.50
2017-12-24T07:11:44.961Z,7.50
2017-12-24T07:14:12.885Z,7.50
2017-12-24T07:16:40.748Z,7.50
2017-12-24T07:19:08.664Z,7.50
2017-12-24T07:21:36.536Z,7.40
2017-12-24T07:24:04.481Z,7.40
2017-12-24T07:26:32.352Z,7.40
2017-12-24T07:29:00.283Z,7.40
2017-12-24T07:31:28.223Z,7.40
2017-12-24T07:33:56.087Z,7.40
2017-12-24T07:36:24.227Z,7.40
2017-12-24T07:38:52.844Z,7.40
2017-12-24T07:41:20.763Z,7.40
2017-12-24T07:43:48.619Z,7.40
2017-12-24T07:46:16.545Z,7.40
2017-12-24T07:48:44.421Z,7.40
2017-12-24T07:51:12.353Z,7.40
2017-12-24T07:53:41.556Z,7.40
2017-12-24T07:56:09.485Z,7.40
2017-12-24T07:58:37.359Z,7.40
2017-12-24T08:01:05.264Z,7.40
2017-12-24T08:03:33.128Z,7.40
2017-12-24T08:06:01.100Z,7.40
2017-12-24T08:08:32.673Z,7.50
2017-12-24T08:11:00.728Z,7.40
2017-12-24T08:13:28.615Z,7.50
2017-12-24T08:16:00.342Z,7.50
2017-12-24T08:18:29.081Z,7.50
2017-12-24T08:20:57.060Z,7.50
2017-12-24T08:23:24.922Z,7.50
2017-12-24T08:25:52.837Z,7.50
2017-12-24T08:28:24.580Z,7.50
2017-12-24T08:30:55.122Z,7.50
2017-12-24T08:33:25.701Z,7.50
2017-12-24T08:35:53.816Z,7.50
2017-12-24T08:38:21.689Z,7.50
2017-12-24T08:40:49.601Z,7.50
2017-12-24T08:43:17.521Z,7.50
2017-12-24T08:45:45.453Z,7.60
2017-12-24T08:48:13.372Z,7.60
2017-12-24T08:50:42.099Z,7.60
2017-12-24T08:53:10.005Z,7.60
2017-12-24T08:55:37.863Z,7.70
2017-12-24T08:58:05.921Z,7.70
2017-12-24T09:00:34.273Z,7.70
2017-12-24T09:03:02.194Z,7.70
2017-12-24T09:05:30.087Z,7.80
2017-12-24T09:07:58.017Z,7.90
2017-12-24T09:10:25.892Z,7.90
2017-12-24T09:12:53.812Z,7.90
2017-12-24T09:15:21.700Z,7.90
2017-12-24T09:17:49.621Z,7.90
2017-12-24T09:20:17.499Z,8.00
2017-12-24T09:22:45.457Z,8.00
2017-12-24T09:25:17.611Z,8.00
2017-12-24T09:27:50.260Z,8.00
2017-12-24T09:30:18.122Z,8.00
2017-12-24T09:32:46.058Z,8.10
2017-12-24T09:35:14.700Z,8.10
2017-12-24T09:37:42.644Z,8.00
2017-12-24T09:40:10.510Z,8.10
2017-12-24T09:42:38.581Z,8.10
2017-12-24T09:45:07.712Z,8.10
2017-12-24T09:47:36.408Z,8.20
2017-12-24T09:50:04.598Z,8.10
2017-12-24T09:52:32.479Z,8.20
2017-12-24T09:55:01.169Z,8.20
2017-12-24T09:57:29.220Z,8.20
2017-12-24T09:59:57.146Z,8.20
2017-12-24T10:02:27.748Z,8.30
2017-12-24T10:04:55.870Z,8.20
2017-12-24T10:07:23.742Z,8.30
2017-12-24T10:09:51.674Z,8.30
2017-12-24T10:12:21.497Z,8.40
2017-12-24T10:14:49.431Z,8.40
2017-12-24T10:17:19.329Z,8.40
2017-12-24T10:19:47.252Z,8.40
2017-12-24T10:22:15.119Z,8.40
2017-12-24T10:24:43.024Z,8.50
2017-12-24T10:27:10.892Z,8.50
2017-12-24T10:29:39.974Z,8.50
2017-12-24T10:32:07.869Z,8.50
2017-12-24T10:34:37.549Z,8.60
2017-12-24T10:37:06.389Z,8.60
2017-12-24T10:39:35.089Z,8.60
2017-12-24T10:42:02.975Z,8.60
2017-12-24T10:44:30.895Z,8.60
2017-12-24T10:46:58.946Z,8.70
2017-12-24T10:49:26.882Z,8.60
2017-12-24T10:51:54.787Z,8.60
2017-12-24T10:54:22.714Z,8.60
2017-12-24T10:56:50.600Z,8.70
2017-12-24T10:59:18.469Z,8.80
2017-12-24T11:01:46.394Z,8.80
2017-12-24T11:04:14.267Z,8.80
2017-12-24T11:06:42.960Z,8.80
2017-12-24T11:09:11.678Z,8.90
2017-12-24T11:11:42.030Z,8.80
2017-12-24T11:14:09.918Z,8.90
2017-12-24T11:16:37.853Z,8.90
2017-12-24T11:19:05.744Z,9.00
2017-12-24T11:21:33.666Z,8.90
2017-12-24T11:24:01.546Z,9.00
2017-12-24T11:26:29.473Z,8.90
2017-12-24T11:28:57.346Z,9.00
2017-12-24T11:31:26.068Z,9.00
2017-12-24T11:33:53.945Z,8.90
2017-12-24T11:36:21.866Z,9.00
2017-12-24T11:38:49.745Z,9.00
2017-12-24T11:41:18.450Z,8.90
2017-12-24T11:43:46.394Z,8.90
2017-12-24T11:46:18.318Z,9.00
2017-12-24T11:48:46.349Z,8.90
2017-12-24T11:51:14.282Z,8.90
2017-12-24T11:53:42.140Z,8.90
2017-12-24T11:56:10.048Z,8.90
2017-12-24T11:58:37.913Z,8.90
2017-12-24T12:01:06.541Z,8.90
2017-12-24T12:03:34.916Z,8.90
2017-12-24T12:06:03.560Z,8.90
2017-12-24T12:08:31.484Z,8.90
2017-12-24T12:10:59.403Z,8.90
2017-12-24T12:13:28.482Z,8.90
2017-12-24T12:15:56.406Z,8.90
2017-12-24T12:18:24.401Z,8.90
2017-12-24T12:20:52.276Z,8.80
2017-12-24T12:23:20.205Z,8.80
2017-12-24T12:25:48.064Z,8.80
2017-12-24T12:28:15.994Z,8.80
2017-12-24T12:30:43.881Z,8.80
2017-12-24T12:33:11.815Z,8.80
2017-12-24T12:35:39.677Z,8.80
2017-12-24T12:38:07.668Z,8.80
2017-12-24T12:40:35.537Z,8.80
2017-12-24T12:43:03.457Z,8.90
2017-12-24T12:45:31.349Z,8.90
2017-12-24T12:47:59.540Z,8.90
2017-12-24T12:50:27.418Z,8.90
2017-12-24T12:52:55.342Z,8.90
2017-12-24T12:55:23.223Z,9.00
2017-12-24T12:57:51.160Z,8.90
2017-12-24T13:00:19.267Z,8.90
2017-12-24T13:02:47.194Z,8.90
2017-12-24T13:05:15.073Z,8.90
2017-12-24T13:07:42.955Z,9.00
2017-12-24T13:10:10.907Z,9.00
2017-12-24T13:12:38.793Z,9.00
2017-12-24T13:15:06.717Z,9.00
2017-12-24T13:17:34.654Z,9.00
2017-12-24T13:20:02.576Z,9.00
2017-12-24T13:22:30.438Z,9.00
2017-12-24T13:24:58.358Z,9.00
2017-12-24T13:27:26.234Z,9.00
2017-12-24T13:29:54.160Z,8.90
2017-12-24T13:32:22.023Z,9.00
2017-12-24T13:34:49.939Z,9.00
2017-12-24T13:37:18.750Z,9.00
2017-12-24T13:39:46.695Z,9.00
2017-12-24T13:42:14.583Z,8.90
2017-12-24T13:44:42.514Z,8.90
2017-12-24T13:47:10.624Z,8.90
2017-12-24T13:49:38.549Z,8.90
2017-12-24T13:52:06.421Z,8.90
2017-12-24T13:54:34.326Z,8.90
2017-12-24T13:57:02.236Z,8.90
2017-12-24T13:59:30.156Z,8.90
2017-12-24T14:01:58.054Z,8.90
2017-12-24T14:04:26.021Z,8.80
2017-12-24T14:06:54.580Z,8.80
2017-12-24T14:09:22.454Z,8.80
2017-12-24T14:11:50.612Z,8.80
2017-12-24T14:14:19.194Z,8.80
2017-12-24T14:16:49.547Z,8.80
2017-12-24T14:19:19.730Z,8.80
2017-12-24T14:21:47.906Z,8.80
2017-12-24T14:24:15.831Z,8.80
2017-12-24T14:26:44.524Z,8.80
2017-12-24T14:29:15.800Z,8.70
2017-12-24T14:31:43.735Z,8.70
2017-12-24T14:34:11.627Z,8.70
2017-12-24T14:36:39.566Z,8.70
2017-12-24T14:39:07.469Z,8.70
2017-12-24T14:41:35.417Z,8.70
2017-12-24T14:44:03.336Z,8.70
2017-12-24T14:46:31.491Z,8.60
2017-12-24T14:48:59.466Z,8.60
2017-12-24T14:51:27.441Z,8.60
2017-12-24T14:53:55.355Z,8.60
2017-12-24T14:56:23.541Z,8.50
2017-12-24T14:58:51.421Z,8.50
2017-12-24T15:01:20.602Z,8.50
2017-12-24T15:03:48.556Z,8.50
2017-12-24T15:06:17.445Z,8.50
2017-12-24T15:08:45.447Z,8.40
2017-12-24T15:11:13.459Z,8.40
2017-12-24T15:13:41.387Z,8.40
2017-12-24T15:16:16.092Z,8.40
2017-12-24T15:18:44.084Z,8.40
2017-12-24T15:21:12.084Z,8.40
2017-12-24T15:23:40.683Z,8.40
2017-12-24T15:26:08.613Z,8.40
2017-12-24T15:28:36.592Z,8.40
2017-12-24T15:31:04.651Z,8.40
2017-12-24T15:33:32.669Z,8.40
2017-12-24T15:36:00.572Z,8.40
2017-12-24T15:38:32.571Z,8.40
2017-12-24T15:41:00.725Z,8.40
2017-12-24T15:43:29.538Z,8.30
2017-12-24T15:45:57.566Z,8.30
2017-12-24T15:48:26.304Z,8.30
2017-12-24T15:50:54.313Z,8.30
2017-12-24T15:53:22.399Z,8.30
2017-12-24T15:55:50.907Z,8.30
2017-12-24T15:58:18.887Z,8.30
2017-12-24T16:00:46.777Z,8.30
2017-12-24T16:03:14.737Z,8.30
2017-12-24T16:05:42.661Z,8.30
2017-12-24T16:08:10.740Z,8.30
2017-12-24T16:10:39.531Z,8.30
2017-12-24T16:13:07.484Z,8.30
2017-12-24T16:15:35.389Z,8.30
2017-12-24T16:18:03.345Z,8.20
2017-12-24T16:20:31.298Z,8.20
2017-12-24T16:22:59.251Z,8.30
2017-12-24T16:25:27.139Z,8.30
2017-12-24T16:28:05.733Z,8.30
2017-12-24T16:30:33.724Z,8.30
2017-12-24T16:33:01.722Z,8.30
2017-12-24T16:35:29.624Z,8.30
2017-12-24T16:37:57.620Z,8.30
2017-12-24T16:40:25.623Z,8.20
2017-12-24T16:42:53.524Z,8.20
2017-12-24T16:45:21.490Z,8.20
2017-12-24T16:47:49.392Z,8.20
2017-12-24T16:50:17.330Z,8.20
2017-12-24T16:52:45.262Z,8.20
2017-12-24T16:55:13.197Z,8.20
2017-12-24T16:57:42.326Z,8.30
2017-12-24T17:00:10.296Z,8.30
2017-12-24T17:02:38.227Z,8.20
2017-12-24T17:05:07.034Z,8.20
2017-12-24T17:07:36.709Z,8.20
2017-12-24T17:10:05.523Z,8.20
2017-12-24T17:12:33.482Z,8.10
2017-12-24T17:15:01.413Z,8.10
2017-12-24T17:17:30.079Z,8.20
2017-12-24T17:19:58.148Z,8.20
2017-12-24T17:22:26.156Z,8.20
2017-12-24T17:24:54.085Z,8.20
2017-12-24T17:27:23.085Z,8.10
2017-12-24T17:29:51.914Z,8.10
2017-12-24T17:32:19.797Z,8.10
2017-12-24T17:34:47.674Z,8.10
2017-12-24T17:37:21.093Z,8.10
2017-12-24T17:39:49.419Z,8.10
2017-12-24T17:42:17.382Z,8.10
2017-12-24T17:44:46.055Z,8.10
2017-12-24T17:47:18.485Z,8.10
2017-12-24T17:49:46.404Z,8.10
2017-12-24T17:52:15.082Z,8.10
2017-12-24T17:54:43.079Z,8.10
2017-12-24T17:57:11.219Z,8.10
2017-12-24T17:59:39.102Z,8.10
2017-12-24T18:02:07.832Z,8.00
2017-12-24T18:04:38.897Z,8.00
2017-12-24T18:07:07.032Z,8.00
2017-12-24T18:09:38.408Z,8.00
2017-12-24T18:12:06.648Z,8.10
2017-12-24T18:14:34.541Z,8.10
2017-12-24T18:17:02.467Z,8.00
2017-12-24T18:19:30.378Z,8.00
2017-12-24T18:21:58.335Z,8.00
2017-12-24T18:24:26.234Z,8.00
2017-12-24T18:26:54.208Z,8.00
2017-12-24T18:29:22.091Z,8.00
2017-12-24T18:31:50.051Z,8.00
2017-12-24T18:34:17.945Z,8.00
2017-12-24T18:36:46.036Z,8.00
2017-12-24T18:39:14.694Z,8.00
2017-12-24T18:41:42.671Z,8.00
2017-12-24T18:44:10.581Z,8.00
2017-12-24T18:46:38.475Z,7.90
2017-12-24T18:49:06.410Z,7.90
2017-12-24T18:51:35.058Z,7.90
2017-12-24T18:54:03.030Z,7.90
2017-12-24T18:56:30.938Z,7.90
2017-12-24T18:58:58.909Z,7.90
2017-12-24T19:01:26.804Z,7.90
2017-12-24T19:03:54.760Z,7.90
2017-12-24T19:06:23.801Z,7.90
2017-12-24T19:08:55.822Z,7.90
2017-12-24T19:11:24.015Z,7.90
2017-12-24T19:13:52.282Z,7.90
2017-12-24T19:16:20.329Z,7.90
2017-12-24T19:18:48.264Z,7.90
2017-12-24T19:21:16.157Z,7.90
2017-12-24T19:23:44.097Z,7.90
2017-12-24T19:26:11.978Z,7.90
2017-12-24T19:28:43.585Z,7.90
2017-12-24T19:31:11.581Z,7.90
2017-12-24T19:33:39.537Z,8.00
2017-12-24T19:36:07.456Z,7.90
2017-12-24T19:38:36.961Z,7.90
2017-12-24T19:41:05.611Z,7.90
2017-12-24T19:43:33.548Z,7.90
2017-12-24T19:46:01.449Z,7.80
2017-12-24T19:48:29.389Z,7.80
2017-12-24T19:50:57.470Z,7.80
2017-12-24T19:53:25.377Z,7.80
2017-12-24T19:55:53.320Z,7.70
2017-12-24T19:58:21.631Z,7.70
2017-12-24T20:00:49.928Z,7.70
2017-12-24T20:03:18.805Z,7.70
2017-12-24T20:05:46.896Z,7.70
2017-12-24T20:08:14.956Z,7.70
2017-12-24T20:10:43.947Z,7.70
2017-12-24T20:13:13.581Z,7.70
2017-12-24T20:15:43.035Z,7.70
2017-12-24T20:18:12.115Z,7.70
2017-12-24T20:20:43.122Z,7.80
2017-12-24T20:23:11.218Z,7.70
2017-12-24T20:25:39.611Z,7.70
2017-12-24T20:28:08.712Z,7.70
2017-12-24T20:30:37.191Z,7.70
2017-12-24T20:33:05.186Z,7.70
2017-12-24T20:35:34.363Z,7.80
2017-12-24T20:38:02.614Z,7.80
2017-12-24T20:40:31.119Z,7.80
2017-12-24T20:43:00.110Z,7.80
2017-12-24T20:45:28.512Z,7.70
2017-12-24T20:48:04.956Z,7.70
2017-12-24T20:50:33.300Z,7.70
2017-12-24T20:53:03.258Z,7.70
2017-12-24T20:55:32.492Z,7.70
2017-12-24T20:58:01.591Z,7.70
2017-12-24T21:00:30.349Z,7.70
2017-12-24T21:02:59.269Z,7.80
2017-12-24T21:05:27.820Z,7.70
2017-12-24T21:07:57.135Z,7.70
2017-12-24T21:10:26.203Z,7.70
2017-12-24T21:12:54.813Z,7.70
2017-12-24T21:15:22.994Z,7.60
2017-12-24T21:17:51.512Z,7.60
2017-12-24T21:20:21.240Z,7.60
2017-12-24T21:22:49.907Z,7.60
2017-12-24T21:25:19.393Z,7.60
2017-12-24T21:27:48.229Z,7.70
2017-12-24T21:30:17.057Z,7.70
2017-12-24T21:32:46.395Z,7.70
2017-12-24T21:35:15.089Z,7.70
2017-12-24T21:37:44.229Z,7.70
2017-12-24T21:40:12.755Z,7.70
2017-12-24T21:42:42.009Z,7.70
2017-12-24T21:45:10.469Z,7.70
2017-12-24T21:47:39.240Z,7.60
2017-12-24T21:50:08.521Z,7.60
2017-12-24T21:52:37.120Z,7.60
2017-12-24T21:55:07.040Z,7.60
2017-12-24T21:57:37.308Z,7.50
2017-12-24T22:00:05.913Z,7.50
2017-12-24T22:02:34.507Z,7.50
2017-12-24T22:05:03.185Z,7.60
2017-12-24T22:07:36.375Z,7.60
2017-12-24T22:10:05.660Z,7.60
2017-12-24T22:12:34.997Z,7.50
2017-12-24T22:15:04.127Z,7.50
2017-12-24T22:17:33.391Z,7.50
2017-12-24T22:20:02.365Z,7.50
2017-12-24T22:22:31.010Z,7.50
2017-12-24T22:24:59.219Z,7.50
2017-12-24T22:27:28.451Z,7.40
2017-12-24T22:29:56.445Z,7.50
2017-12-24T22:32:25.112Z,7.50
2017-12-24T22:34:53.145Z,7.50
2017-12-24T22:37:21.043Z,7.50
2017-12-24T22:39:49.004Z,7.50
2017-12-24T22:42:16.927Z,7.50
2017-12-24T22:44:44.920Z,7.50
2017-12-24T22:47:12.974Z,7.50
2017-12-24T22:49:42.314Z,7.50
2017-12-24T22:52:10.254Z,7.50
2017-12-24T22:54:38.195Z,7.50
2017-12-24T22:57:06.157Z,7.50
2017-12-24T22:59:34.906Z,7.50
2017-12-24T23:02:02.820Z,7.50
2017-12-24T23:04:30.747Z,7.50
2017-12-24T23:06:58.642Z,7.40
2017-12-24T23:09:26.589Z,7.40
2017-12-24T23:11:54.482Z,7.40
2017-12-24T23:14:22.436Z,7.40
2017-12-24T23:16:50.358Z,7.40
2017-12-24T23:19:19.602Z,7.40
2017-12-24T23:21:47.521Z,7.40
2017-12-24T23:24:15.486Z,7.40
2017-12-24T23:26:45.486Z,7.40
2017-12-24T23:29:14.216Z,7.30
2017-12-24T23:31:42.509Z,7.30
2017-12-24T23:34:10.402Z,7.30
2017-12-24T23:36:38.354Z,7.30
2017-12-24T23:39:06.278Z,7.30
2017-12-24T23:41:34.264Z,7.30
2017-12-24T23:44:02.145Z,7.30
2017-12-24T23:46:30.119Z,7.30
2017-12-24T23:48:58.020Z,7.30
2017-12-24T23:51:25.994Z,7.30
2017-12-24T23:53:53.888Z,7.30
2017-12-24T23:56:23.029Z,7.30
2017-12-24T23:58:53.099Z,7.30
